Time;durP1;ratioP1;P1;durP2;ratioP2;P2;SDS_P1;SDS_P2;PMS_P1;PMS_P2;Temp;Humidity;BMP_temperature;BMP_pressure;BME280_temperature;BME280_humidity;BME280_pressure;Samples;Min_cycle;Max_cycle;Signal;HPM_P1;HPM_P2
2022/03/02 00:01:16;;;;;;;16.80;11.70;;;2.00;78.20;;;;;;5042720;28;21062;-46
2022/03/02 00:03:43;;;;;;;24.77;11.97;;;1.90;78.50;;;;;;5044286;28;20783;-45
2022/03/02 00:06:10;;;;;;;18.47;11.63;;;2.00;77.90;;;;;;5042371;28;20479;-47
2022/03/02 00:08:37;;;;;;;22.00;12.77;;;2.00;78.30;;;;;;5040083;28;20863;-45
2022/03/02 00:11:05;;;;;;;21.13;12.53;;;2.00;79.10;;;;;;5041528;28;20501;-45
2022/03/02 00:13:32;;;;;;;27.80;14.03;;;1.80;79.30;;;;;;5044167;28;20894;-45
2022/03/02 00:15:59;;;;;;;22.17;11.57;;;1.90;79.50;;;;;;5042044;28;21013;-48
2022/03/02 00:18:26;;;;;;;23.20;13.60;;;1.90;79.80;;;;;;5043072;28;20496;-46
2022/03/02 00:24:15;;;;;;;31.13;15.23;;;2.10;79.70;;;;;;5045829;28;21402;-45
2022/03/02 00:30:10;;;;;;;27.60;14.53;;;1.90;79.30;;;;;;5020889;28;20535;-45
2022/03/02 00:32:36;;;;;;;27.70;14.70;;;1.80;79.40;;;;;;5041940;28;20483;-46
2022/03/02 00:35:03;;;;;;;30.07;14.23;;;1.90;79.00;;;;;;5043032;28;20476;-46
2022/03/02 00:37:30;;;;;;;32.20;13.70;;;2.00;79.20;;;;;;5037984;28;20489;-46
2022/03/02 00:39:57;;;;;;;29.17;11.37;;;2.00;79.60;;;;;;5040835;28;20486;-45
2022/03/02 00:42:24;;;;;;;20.90;12.30;;;2.10;79.50;;;;;;5044944;28;20480;-46
2022/03/02 00:44:50;;;;;;;19.67;12.53;;;2.10;79.60;;;;;;5044787;28;20722;-46
2022/03/02 00:47:19;;;;;;;24.87;13.23;;;2.20;79.10;;;;;;5046829;28;20487;-46
2022/03/02 00:49:47;;;;;;;21.43;12.43;;;2.20;79.60;;;;;;5040325;28;20487;-46
2022/03/02 00:52:14;;;;;;;17.60;12.17;;;2.20;79.80;;;;;;5037816;28;20495;-46
2022/03/02 00:54:41;;;;;;;24.87;13.10;;;2.20;79.30;;;;;;5037279;28;20489;-46
2022/03/02 00:57:08;;;;;;;19.97;11.50;;;2.10;78.90;;;;;;5039263;28;20920;-46
2022/03/02 00:59:35;;;;;;;23.07;14.13;;;2.10;79.10;;;;;;5038535;28;21336;-45
2022/03/02 01:02:01;;;;;;;26.63;13.13;;;2.10;78.40;;;;;;5040196;28;21137;-46
2022/03/02 01:04:29;;;;;;;21.90;13.10;;;2.20;78.50;;;;;;5039849;28;20480;-45
2022/03/02 01:06:56;;;;;;;23.93;13.30;;;2.20;79.00;;;;;;5035269;28;20491;-45
2022/03/02 01:09:23;;;;;;;27.50;13.40;;;2.20;79.40;;;;;;5051127;28;20508;-45
2022/03/02 01:11:50;;;;;;;20.17;12.47;;;2.20;79.50;;;;;;5041695;28;20479;-45
2022/03/02 01:14:17;;;;;;;21.80;12.73;;;2.20;79.60;;;;;;5040821;28;20483;-45
2022/03/02 01:16:43;;;;;;;27.23;13.30;;;2.20;79.80;;;;;;5040554;28;20512;-45
2022/03/02 01:19:10;;;;;;;26.83;13.23;;;2.20;80.10;;;;;;5039786;28;20503;-45
2022/03/02 01:21:38;;;;;;;25.97;14.13;;;2.20;79.70;;;;;;5037498;28;20479;-46
2022/03/02 01:24:06;;;;;;;27.70;12.23;;;2.10;78.80;;;;;;5035598;28;20484;-46
2022/03/02 01:26:36;;;;;;;26.13;12.43;;;2.10;78.70;;;;;;5039111;28;20492;-45
2022/03/02 01:29:03;;;;;;;22.33;13.87;;;2.10;78.90;;;;;;5039913;28;21099;-45
2022/03/02 01:31:30;;;;;;;26.67;14.50;;;2.00;79.40;;;;;;5039839;28;20491;-45
2022/03/02 01:33:57;;;;;;;22.67;12.77;;;2.00;79.60;;;;;;5035705;28;20960;-45
2022/03/02 01:36:24;;;;;;;24.63;13.70;;;1.90;79.90;;;;;;5052781;28;20492;-45
2022/03/02 01:38:52;;;;;;;26.10;12.73;;;1.90;79.90;;;;;;5040544;28;20485;-45
2022/03/02 01:41:23;;;;;;;21.47;13.23;;;1.90;79.60;;;;;;5039777;28;20522;-45
2022/03/02 01:43:52;;;;;;;27.57;14.60;;;1.90;79.40;;;;;;5041052;28;20490;-46
2022/03/02 01:46:20;;;;;;;23.77;13.57;;;1.90;79.40;;;;;;5040171;28;20480;-45
2022/03/02 01:48:47;;;;;;;27.40;13.90;;;1.90;79.40;;;;;;5042991;28;20702;-45
2022/03/02 01:51:14;;;;;;;18.33;11.83;;;1.70;79.30;;;;;;5045064;28;21026;-46
2022/03/02 01:53:42;;;;;;;20.93;11.60;;;1.70;80.00;;;;;;5041858;28;20492;-46
2022/03/02 01:56:11;;;;;;;19.20;12.50;;;1.70;80.20;;;;;;5035884;28;20530;-46
2022/03/02 01:58:38;;;;;;;28.33;13.80;;;1.60;80.70;;;;;;5052499;28;20499;-46
2022/03/02 02:01:06;;;;;;;26.83;13.87;;;1.60;80.80;;;;;;5048141;28;20564;-51
2022/03/02 02:03:34;;;;;;;19.37;12.73;;;1.60;80.40;;;;;;5032428;28;20469;-46
2022/03/02 02:06:01;;;;;;;26.23;12.73;;;1.70;80.00;;;;;;5045144;28;20546;-45
2022/03/02 02:08:28;;;;;;;20.90;12.50;;;1.70;80.20;;;;;;5043895;28;20484;-45
2022/03/02 02:10:57;;;;;;;20.43;10.70;;;1.60;80.70;;;;;;5040207;28;20488;-45
2022/03/02 02:13:25;;;;;;;27.40;13.33;;;1.40;80.80;;;;;;5039822;28;20487;-46
2022/03/02 02:15:54;;;;;;;19.77;12.40;;;1.40;80.80;;;;;;5049598;28;20597;-45
2022/03/02 02:18:21;;;;;;;23.07;13.63;;;1.50;80.50;;;;;;5040709;28;20491;-45
2022/03/02 02:20:49;;;;;;;24.40;12.50;;;1.40;80.50;;;;;;5039296;28;20483;-46
2022/03/02 02:23:16;;;;;;;22.83;14.20;;;1.40;81.00;;;;;;5044223;28;20485;-46
2022/03/02 02:25:43;;;;;;;26.57;15.20;;;1.40;80.90;;;;;;5038794;28;21080;-48
2022/03/02 02:28:11;;;;;;;27.77;11.73;;;1.40;80.50;;;;;;5042942;28;20557;-46
2022/03/02 02:30:38;;;;;;;30.70;13.63;;;1.40;80.10;;;;;;5040165;28;20477;-46
2022/03/02 02:33:05;;;;;;;25.67;13.57;;;1.40;80.20;;;;;;5051439;28;20499;-46
2022/03/02 02:35:33;;;;;;;20.63;13.00;;;1.40;80.80;;;;;;5034503;28;20489;-46
2022/03/02 02:38:01;;;;;;;23.23;13.70;;;1.30;80.60;;;;;;5040643;28;20484;-45
2022/03/02 02:40:28;;;;;;;25.10;14.03;;;1.30;80.40;;;;;;5040854;28;20488;-46
2022/03/02 02:42:55;;;;;;;23.40;11.97;;;1.20;80.30;;;;;;5046164;28;20487;-46
2022/03/02 02:45:24;;;;;;;27.20;13.70;;;1.20;80.70;;;;;;5038424;28;20532;-45
2022/03/02 02:47:54;;;;;;;22.13;13.50;;;0.90;81.90;;;;;;5048000;28;20488;-46
2022/03/02 02:50:22;;;;;;;25.20;14.60;;;1.00;81.60;;;;;;5047807;28;21018;-46
2022/03/02 02:52:51;;;;;;;26.90;13.50;;;1.00;81.00;;;;;;5042669;28;20484;-46
2022/03/02 02:55:20;;;;;;;39.47;14.07;;;1.00;81.60;;;;;;5032250;28;20534;-46
2022/03/02 02:57:47;;;;;;;24.70;13.80;;;1.00;81.60;;;;;;5048595;28;20476;-46
2022/03/02 03:00:16;;;;;;;22.07;13.20;;;1.00;81.40;;;;;;5040361;28;21240;-46
2022/03/02 03:02:45;;;;;;;28.10;10.90;;;0.90;81.60;;;;;;5038328;28;20490;-45
2022/03/02 03:05:14;;;;;;;20.50;11.73;;;0.70;82.20;;;;;;5040025;28;20488;-46
2022/03/02 03:07:42;;;;;;;23.90;13.70;;;0.60;82.40;;;;;;5042840;28;20468;-46
2022/03/02 03:10:10;;;;;;;25.50;13.37;;;0.60;82.70;;;;;;5041538;28;20482;-45
2022/03/02 03:12:39;;;;;;;22.13;12.40;;;0.70;82.50;;;;;;5036516;28;20587;-46
2022/03/02 03:15:09;;;;;;;19.03;12.13;;;0.80;82.60;;;;;;5039216;28;20496;-46
2022/03/02 03:17:36;;;;;;;22.57;12.70;;;0.80;82.70;;;;;;5038850;28;20501;-46
2022/03/02 03:20:04;;;;;;;26.30;15.23;;;0.80;81.90;;;;;;5049233;28;20492;-45
2022/03/02 03:22:30;;;;;;;23.37;14.20;;;0.80;81.30;;;;;;5038905;28;20881;-45
2022/03/02 03:24:57;;;;;;;24.10;12.50;;;0.50;80.80;;;;;;5040595;28;20492;-45
2022/03/02 03:27:24;;;;;;;24.10;13.90;;;0.40;82.30;;;;;;5040060;28;20499;-46
2022/03/02 03:29:52;;;;;;;23.90;13.77;;;0.40;82.10;;;;;;5046516;28;20479;-45
2022/03/02 03:32:19;;;;;;;27.67;14.03;;;0.50;81.90;;;;;;5039964;28;20483;-46
2022/03/02 03:34:46;;;;;;;29.07;14.27;;;0.50;82.20;;;;;;5040917;28;20498;-45
2022/03/02 03:37:13;;;;;;;25.40;15.17;;;0.60;82.80;;;;;;5042459;28;20482;-45
2022/03/02 03:39:42;;;;;;;23.40;13.93;;;0.60;82.20;;;;;;5038299;28;20499;-45
2022/03/02 03:42:10;;;;;;;27.87;14.20;;;0.70;81.80;;;;;;5039126;28;20488;-45
2022/03/02 03:44:36;;;;;;;24.33;12.90;;;0.70;81.50;;;;;;5040601;28;21221;-45
2022/03/02 03:47:06;;;;;;;22.30;13.13;;;0.70;81.60;;;;;;5042375;28;20487;-45
2022/03/02 03:49:33;;;;;;;26.10;13.57;;;0.80;81.70;;;;;;5038860;28;20481;-45
2022/03/02 03:51:59;;;;;;;39.97;14.03;;;0.80;81.50;;;;;;5040959;28;20483;-45
2022/03/02 03:54:26;;;;;;;25.50;15.47;;;0.80;81.30;;;;;;5041107;28;20492;-46
2022/03/02 03:56:53;;;;;;;30.37;15.10;;;0.80;80.80;;;;;;5041834;28;20479;-45
2022/03/02 03:59:20;;;;;;;36.27;15.20;;;0.80;80.40;;;;;;5039598;28;20482;-46
2022/03/02 04:01:47;;;;;;;23.17;13.10;;;0.80;80.80;;;;;;5042853;28;21159;-46
2022/03/02 04:04:15;;;;;;;21.43;12.63;;;0.80;81.70;;;;;;5042545;28;20510;-54
2022/03/02 04:06:42;;;;;;;43.83;13.70;;;0.80;81.40;;;;;;5041071;28;20498;-45
2022/03/02 04:09:08;;;;;;;23.47;12.63;;;0.80;80.80;;;;;;5044573;28;20508;-46
2022/03/02 04:11:35;;;;;;;23.47;12.53;;;0.70;80.60;;;;;;5036031;28;20475;-45
2022/03/02 04:14:02;;;;;;;31.77;12.53;;;0.70;80.50;;;;;;5036719;28;20497;-45
2022/03/02 04:16:29;;;;;;;22.93;12.93;;;0.60;80.70;;;;;;5043903;28;20492;-45
2022/03/02 04:18:56;;;;;;;18.70;12.83;;;0.40;81.30;;;;;;5022675;28;20896;-45
2022/03/02 04:21:24;;;;;;;29.13;13.43;;;0.40;81.90;;;;;;5028112;28;20502;-45
2022/03/02 04:23:51;;;;;;;21.00;15.13;;;0.30;81.60;;;;;;5047351;28;20495;-45
2022/03/02 04:26:17;;;;;;;25.63;14.13;;;0.00;82.20;;;;;;5044788;28;20492;-45
2022/03/02 04:28:44;;;;;;;38.13;13.83;;;-0.20;83.70;;;;;;5039170;28;20473;-45
2022/03/02 04:31:11;;;;;;;25.80;14.77;;;-0.20;84.30;;;;;;5037632;28;20475;-46
2022/03/02 04:33:38;;;;;;;27.33;15.67;;;-0.20;84.20;;;;;;5041511;28;20613;-45
2022/03/02 04:36:06;;;;;;;22.23;13.80;;;-0.10;84.10;;;;;;5037923;28;20463;-45
2022/03/02 04:38:34;;;;;;;24.60;13.97;;;0.00;83.80;;;;;;5039961;28;20479;-45
2022/03/02 04:41:01;;;;;;;24.90;13.13;;;0.10;83.70;;;;;;5039035;28;20473;-45
2022/03/02 04:43:28;;;;;;;27.03;13.10;;;0.10;83.50;;;;;;5039318;28;20809;-44
2022/03/02 04:45:55;;;;;;;18.40;12.07;;;0.20;83.60;;;;;;5024155;28;20831;-44
2022/03/02 04:48:22;;;;;;;20.53;12.60;;;0.20;83.50;;;;;;5033465;28;20498;-44
2022/03/02 04:50:48;;;;;;;26.77;13.47;;;0.20;83.50;;;;;;5015012;28;20495;-45
2022/03/02 04:53:16;;;;;;;30.07;14.00;;;0.20;83.30;;;;;;5038494;28;20502;-45
2022/03/02 04:55:45;;;;;;;23.47;14.10;;;0.30;83.40;;;;;;5038170;28;20519;-45
2022/03/02 04:58:13;;;;;;;45.70;14.60;;;0.30;83.10;;;;;;5040598;28;20502;-45
2022/03/02 05:00:39;;;;;;;22.00;13.00;;;0.30;82.80;;;;;;5039316;28;20482;-45
2022/03/02 05:03:07;;;;;;;22.63;13.40;;;0.40;82.90;;;;;;5038261;28;20510;-45
2022/03/02 05:05:36;;;;;;;35.63;16.00;;;0.40;83.10;;;;;;5023569;28;20467;-45
2022/03/02 05:08:03;;;;;;;25.50;14.63;;;0.40;83.30;;;;;;5037146;28;20481;-45
2022/03/02 05:10:30;;;;;;;26.17;14.30;;;0.30;83.40;;;;;;5036617;28;20477;-45
2022/03/02 05:12:58;;;;;;;31.97;15.53;;;0.40;83.70;;;;;;5039433;28;20486;-45
2022/03/02 05:15:26;;;;;;;22.67;13.27;;;0.40;84.00;;;;;;5038255;28;20487;-46
2022/03/02 05:17:52;;;;;;;31.93;15.27;;;0.50;83.90;;;;;;5041934;28;20889;-45
2022/03/02 05:20:21;;;;;;;36.57;16.10;;;0.50;83.70;;;;;;5042392;28;21196;-46
2022/03/02 05:22:49;;;;;;;20.40;13.73;;;0.60;84.10;;;;;;5042052;28;20489;-45
2022/03/02 05:25:17;;;;;;;24.67;13.33;;;0.60;84.20;;;;;;5046557;28;20478;-46
2022/03/02 05:27:45;;;;;;;28.27;14.90;;;0.60;84.10;;;;;;5047747;28;20520;-45
2022/03/02 05:30:14;;;;;;;27.60;14.80;;;0.60;83.60;;;;;;5043985;28;20613;-46
2022/03/02 05:32:41;;;;;;;22.17;12.77;;;;;;;;;;5043963;28;20481;-44
2022/03/02 05:35:09;;;;;;;26.90;14.97;;;0.70;83.10;;;;;;5022670;28;20481;-45
2022/03/02 05:37:42;;;;;;;24.27;15.00;;;0.80;83.60;;;;;;5049550;28;21286;-45
2022/03/02 05:40:11;;;;;;;41.77;16.80;;;0.80;83.90;;;;;;5062887;28;20482;-45
2022/03/02 05:42:37;;;;;;;28.37;13.33;;;0.80;83.70;;;;;;5044170;28;20475;-45
2022/03/02 05:45:06;;;;;;;22.33;14.23;;;0.70;83.50;;;;;;5041803;28;21052;-45
2022/03/02 05:47:34;;;;;;;34.73;13.30;;;0.60;83.40;;;;;;5040271;28;20919;-45
2022/03/02 05:50:00;;;;;;;26.47;14.37;;;0.70;83.90;;;;;;5041227;28;20495;-45
2022/03/02 05:52:27;;;;;;;24.90;15.20;;;0.70;83.70;;;;;;5041138;28;20491;-44
2022/03/02 05:54:54;;;;;;;42.20;15.50;;;0.70;84.00;;;;;;5040023;28;21642;-45
2022/03/02 05:57:21;;;;;;;26.70;14.03;;;0.80;83.90;;;;;;5043202;28;20475;-45
2022/03/02 05:59:47;;;;;;;23.27;14.60;;;0.80;84.00;;;;;;5041413;28;20497;-45
2022/03/02 06:02:14;;;;;;;24.20;14.33;;;0.80;84.40;;;;;;5041209;28;20474;-46
2022/03/02 06:04:43;;;;;;;26.60;15.17;;;0.80;84.50;;;;;;5042570;28;21037;-44
2022/03/02 06:07:09;;;;;;;31.93;14.47;;;0.80;84.60;;;;;;5044275;28;21076;-44
2022/03/02 06:09:37;;;;;;;33.43;16.47;;;0.90;84.60;;;;;;5038962;28;20501;-45
2022/03/02 06:12:04;;;;;;;26.00;15.00;;;1.00;84.60;;;;;;5043735;28;20482;-45
2022/03/02 06:14:32;;;;;;;27.83;15.10;;;1.00;84.40;;;;;;5042012;28;20497;-45
2022/03/02 06:16:59;;;;;;;24.20;16.10;;;1.00;84.60;;;;;;5044001;28;21025;-45
2022/03/02 06:19:26;;;;;;;26.73;13.80;;;1.10;84.70;;;;;;5039801;28;21163;-45
2022/03/02 06:21:55;;;;;;;31.20;16.77;;;1.20;84.60;;;;;;5043362;28;20509;-46
2022/03/02 06:24:22;;;;;;;30.17;15.23;;;1.20;84.60;;;;;;5042322;28;20864;-45
2022/03/02 06:26:49;;;;;;;32.80;17.03;;;1.30;84.70;;;;;;5039349;28;20492;-45
2022/03/02 06:29:16;;;;;;;29.00;15.67;;;1.30;84.60;;;;;;5040789;28;20472;-45
2022/03/02 06:31:43;;;;;;;28.80;14.37;;;1.30;84.60;;;;;;5043270;28;20517;-45
2022/03/02 06:34:10;;;;;;;26.57;14.80;;;1.40;84.70;;;;;;5043757;28;21017;-46
2022/03/02 06:36:36;;;;;;;33.30;15.40;;;1.40;84.70;;;;;;5041388;28;20501;-45
2022/03/02 06:39:05;;;;;;;39.83;17.90;;;1.50;84.70;;;;;;5042404;28;20498;-45
2022/03/02 06:41:46;;;;;;;35.70;16.67;;;1.50;84.50;;;;;;5038010;28;20514;-45
2022/03/02 06:44:21;;;;;;;36.43;16.90;;;1.60;84.30;;;;;;5046135;28;20486;-45
2022/03/02 06:46:55;;;;;;;28.47;15.33;;;1.70;84.40;;;;;;5033301;28;20515;-46
2022/03/02 06:49:26;;;;;;;28.53;15.73;;;1.70;84.30;;;;;;5036974;28;20488;-45
2022/03/02 06:51:57;;;;;;;24.83;16.40;;;1.80;84.20;;;;;;5039602;28;20567;-45
2022/03/02 06:54:29;;;;;;;29.53;17.33;;;1.90;84.30;;;;;;5046887;28;20575;-46
2022/03/02 06:56:58;;;;;;;36.10;18.57;;;2.00;84.50;;;;;;5039899;28;21069;-46
2022/03/02 06:59:30;;;;;;;30.07;18.13;;;2.00;84.50;;;;;;5038171;28;20827;-46
2022/03/02 07:02:02;;;;;;;33.93;16.57;;;2.00;84.60;;;;;;5040271;28;20517;-46
2022/03/02 07:04:33;;;;;;;28.97;16.10;;;2.10;84.60;;;;;;5040951;28;20568;-45
2022/03/02 07:07:02;;;;;;;35.83;16.57;;;2.10;84.60;;;;;;5040993;28;20490;-45
2022/03/02 07:09:30;;;;;;;26.10;15.00;;;2.10;85.10;;;;;;5038102;28;20485;-45
2022/03/02 07:11:59;;;;;;;28.53;16.20;;;2.10;85.10;;;;;;5041045;28;20504;-45
2022/03/02 07:14:28;;;;;;;30.13;16.57;;;2.20;85.00;;;;;;5042339;28;20492;-45
2022/03/02 07:16:58;;;;;;;27.67;15.97;;;2.30;84.70;;;;;;5041591;28;20482;-45
2022/03/02 07:19:24;;;;;;;31.60;15.63;;;2.30;84.40;;;;;;5036769;28;20581;-46
2022/03/02 07:21:52;;;;;;;25.00;14.87;;;2.30;84.10;;;;;;5038819;28;20590;-45
2022/03/02 07:24:22;;;;;;;23.57;14.87;;;2.30;84.10;;;;;;5020374;28;20477;-45
2022/03/02 07:26:54;;;;;;;24.97;15.10;;;2.30;84.60;;;;;;5043955;28;20479;-45
2022/03/02 07:29:23;;;;;;;40.87;16.77;;;2.30;84.30;;;;;;5027682;28;20479;-45
2022/03/02 07:31:51;;;;;;;38.67;16.60;;;2.30;84.10;;;;;;5043215;28;20900;-45
2022/03/02 07:34:19;;;;;;;27.03;16.87;;;2.40;84.30;;;;;;5037074;28;20483;-45
2022/03/02 07:36:47;;;;;;;31.93;16.13;;;2.40;84.50;;;;;;5040590;28;20557;-45
2022/03/02 07:39:14;;;;;;;35.07;18.90;;;2.60;84.70;;;;;;5039451;28;20552;-46
2022/03/02 07:41:40;;;;;;;26.40;15.93;;;2.70;84.70;;;;;;5035588;28;20999;-45
2022/03/02 07:44:09;;;;;;;30.10;17.43;;;2.90;84.60;;;;;;5039078;28;21044;-46
2022/03/02 07:46:36;;;;;;;37.23;18.30;;;3.00;84.50;;;;;;5041298;28;20938;-45
2022/03/02 07:49:04;;;;;;;35.57;16.90;;;3.10;84.30;;;;;;5040132;28;20490;-46
2022/03/02 07:51:34;;;;;;;32.13;18.67;;;3.30;84.00;;;;;;5035394;28;20487;-46
2022/03/02 07:54:03;;;;;;;33.10;18.33;;;3.30;83.80;;;;;;5036145;28;20490;-47
2022/03/02 07:56:31;;;;;;;27.03;17.03;;;3.40;83.20;;;;;;5040570;28;20495;-46
2022/03/02 07:59:03;;;;;;;28.73;17.00;;;3.40;83.50;;;;;;5039775;28;20489;-46
2022/03/02 08:01:35;;;;;;;28.23;16.87;;;3.50;83.50;;;;;;5035949;28;20486;-45
2022/03/02 08:04:05;;;;;;;38.80;20.67;;;3.50;83.50;;;;;;5041236;28;20576;-46
2022/03/02 08:06:34;;;;;;;44.90;21.20;;;3.50;83.40;;;;;;5033302;28;20491;-45
2022/03/02 08:09:03;;;;;;;28.90;17.60;;;3.60;83.70;;;;;;5043836;28;20481;-45
2022/03/02 08:11:32;;;;;;;32.27;17.33;;;3.60;83.30;;;;;;5040155;28;20488;-46
2022/03/02 08:13:59;;;;;;;36.23;18.17;;;3.70;83.00;;;;;;5040547;28;20487;-45
2022/03/02 08:16:28;;;;;;;32.83;16.53;;;3.70;83.60;;;;;;5040042;28;20580;-45
2022/03/02 08:18:57;;;;;;;33.23;17.33;;;3.80;83.60;;;;;;5038149;28;21651;-45
2022/03/02 08:21:27;;;;;;;29.37;17.40;;;3.80;83.20;;;;;;5029829;28;20487;-45
2022/03/02 08:23:57;;;;;;;29.20;17.13;;;3.90;82.90;;;;;;5028557;28;20553;-45
2022/03/02 08:26:25;;;;;;;27.77;15.40;;;4.00;83.00;;;;;;5028406;28;20483;-46
2022/03/02 08:28:55;;;;;;;22.13;15.20;;;4.00;82.50;;;;;;5038650;28;20672;-45
2022/03/02 08:31:23;;;;;;;29.43;16.47;;;4.10;82.00;;;;;;5040079;28;20554;-46
2022/03/02 08:33:51;;;;;;;30.07;15.20;;;4.20;82.20;;;;;;5036708;28;20729;-45
2022/03/02 08:36:21;;;;;;;26.10;14.97;;;4.20;82.00;;;;;;5043683;28;20489;-46
2022/03/02 08:38:50;;;;;;;27.03;18.83;;;4.30;82.20;;;;;;5039332;28;22781;-45
2022/03/02 08:41:17;;;;;;;26.23;15.20;;;;;;;;;;5034566;28;20476;-47
2022/03/02 08:43:45;;;;;;;26.70;15.57;;;4.40;80.50;;;;;;5039713;28;20705;-45
2022/03/02 08:46:13;;;;;;;27.30;15.40;;;4.40;80.30;;;;;;5041564;28;20515;-45
2022/03/02 08:48:40;;;;;;;26.37;17.10;;;4.40;80.00;;;;;;5041387;28;20478;-45
2022/03/02 08:51:07;;;;;;;28.20;15.80;;;4.40;81.20;;;;;;5040693;28;20485;-45
2022/03/02 08:53:38;;;;;;;26.77;15.90;;;4.40;80.40;;;;;;5039761;28;20497;-45
2022/03/02 08:56:06;;;;;;;27.73;15.57;;;4.50;80.80;;;;;;5040414;28;21008;-45
2022/03/02 08:58:33;;;;;;;29.23;17.77;;;4.60;80.90;;;;;;5039050;28;20565;-45
2022/03/02 09:01:01;;;;;;;27.50;16.20;;;4.70;80.30;;;;;;5040670;28;20507;-48
2022/03/02 09:03:27;;;;;;;27.70;16.30;;;4.70;80.40;;;;;;5040336;28;20493;-45
2022/03/02 09:05:55;;;;;;;28.70;16.80;;;4.80;80.00;;;;;;5038498;28;20981;-45
2022/03/02 09:08:22;;;;;;;30.33;17.10;;;4.90;79.40;;;;;;5029515;28;20476;-45
2022/03/02 09:10:50;;;;;;;25.77;15.57;;;4.90;79.10;;;;;;5032404;28;20506;-46
2022/03/02 09:13:17;;;;;;;27.00;16.10;;;4.90;79.40;;;;;;5039632;28;20492;-46
2022/03/02 09:15:44;;;;;;;29.77;15.70;;;5.00;80.10;;;;;;5058044;28;20490;-46
2022/03/02 09:18:10;;;;;;;26.90;14.90;;;5.00;80.10;;;;;;5052716;28;20489;-45
2022/03/02 09:20:38;;;;;;;31.77;15.60;;;5.00;79.10;;;;;;5033989;28;20501;-46
2022/03/02 09:23:06;;;;;;;26.50;15.53;;;5.10;80.10;;;;;;5040530;28;20503;-46
2022/03/02 09:25:33;;;;;;;29.43;17.20;;;5.20;81.00;;;;;;5039707;28;21061;-48
2022/03/02 09:28:02;;;;;;;44.73;18.27;;;5.30;80.60;;;;;;5045853;28;20472;-45
2022/03/02 09:30:29;;;;;;;27.97;16.70;;;5.40;80.60;;;;;;5034448;28;20515;-45
2022/03/02 09:32:59;;;;;;;26.10;14.30;;;5.40;80.00;;;;;;5049480;28;20468;-45
2022/03/02 09:35:28;;;;;;;27.00;15.40;;;5.50;79.20;;;;;;5039554;28;20936;-46
2022/03/02 09:37:56;;;;;;;24.40;13.90;;;5.60;79.10;;;;;;5039653;28;21320;-45
2022/03/02 09:40:25;;;;;;;22.73;16.40;;;5.70;79.50;;;;;;5034977;28;20726;-46
2022/03/02 09:42:57;;;;;;;29.30;15.80;;;5.90;79.60;;;;;;5038153;28;21105;-45
2022/03/02 09:45:27;;;;;;;21.20;14.47;;;6.10;79.40;;;;;;5038176;28;20887;-45
2022/03/02 09:47:57;;;;;;;29.63;16.00;;;6.10;79.10;;;;;;5039562;28;20945;-45
2022/03/02 09:50:26;;;;;;;25.13;16.33;;;6.20;78.20;;;;;;5034206;28;20925;-45
2022/03/02 09:52:55;;;;;;;25.63;16.30;;;6.20;77.60;;;;;;5039656;28;20498;-45
2022/03/02 09:55:24;;;;;;;31.27;16.33;;;6.30;77.00;;;;;;5039304;28;20479;-45
2022/03/02 09:57:53;;;;;;;26.17;14.87;;;6.30;77.20;;;;;;5040541;28;20479;-45
2022/03/02 10:00:21;;;;;;;33.50;17.20;;;6.30;77.20;;;;;;5039463;28;20495;-45
2022/03/02 10:02:52;;;;;;;35.83;18.40;;;6.40;76.00;;;;;;5040184;28;21009;-46
2022/03/02 10:05:22;;;;;;;26.67;16.00;;;6.40;75.90;;;;;;5042239;28;20998;-45
2022/03/02 10:07:56;;;;;;;20.30;13.83;;;6.40;75.90;;;;;;5043173;28;20492;-46
2022/03/02 10:10:24;;;;;;;26.43;15.97;;;6.50;76.70;;;;;;5041109;28;20478;-45
2022/03/02 10:12:51;;;;;;;38.43;18.10;;;6.50;76.90;;;;;;5043700;28;20995;-46
2022/03/02 10:15:19;;;;;;;29.77;15.03;;;6.70;77.20;;;;;;5043916;28;20484;-45
2022/03/02 10:17:52;;;;;;;35.03;16.23;;;6.80;76.80;;;;;;5043561;28;20566;-45
2022/03/02 10:20:19;;;;;;;21.43;14.00;;;;;;;;;;5041497;28;20578;-45
2022/03/02 10:23:05;;;;;;;27.03;17.40;;;6.90;75.70;;;;;;5043869;28;20480;-45
2022/03/02 10:25:58;;;;;;;29.47;15.43;;;7.10;76.50;;;;;;5039081;28;20555;-45
2022/03/02 10:28:27;;;;;;;26.77;15.40;;;7.10;74.60;;;;;;5024105;28;20516;-45
2022/03/02 10:31:14;;;;;;;27.50;15.10;;;7.20;74.30;;;;;;5040388;28;21082;-44
2022/03/02 10:33:48;;;;;;;22.20;15.30;;;7.30;75.90;;;;;;5054988;28;20473;-46
2022/03/02 10:36:17;;;;;;;31.47;15.43;;;7.50;75.20;;;;;;5042743;28;20521;-47
2022/03/02 10:38:51;;;;;;;27.47;14.13;;;7.60;74.70;;;;;;5039219;28;20486;-45
2022/03/02 10:41:21;;;;;;;24.10;14.57;;;7.60;73.40;;;;;;5040749;28;20765;-45
2022/03/02 10:43:57;;;;;;;22.00;13.30;;;7.60;72.40;;;;;;5034946;28;20711;-45
2022/03/02 10:46:25;;;;;;;24.20;15.47;;;7.60;72.20;;;;;;5040072;28;20489;-45
2022/03/02 10:49:04;;;;;;;21.27;15.80;;;7.60;72.30;;;;;;5037739;28;20487;-45
2022/03/02 10:51:32;;;;;;;31.40;18.50;;;7.70;72.70;;;;;;5037822;28;20810;-45
2022/03/02 10:54:02;;;;;;;29.53;14.80;;;7.80;73.80;;;;;;5033181;28;20482;-45
2022/03/02 10:56:30;;;;;;;29.20;16.30;;;7.90;73.40;;;;;;5050745;28;20569;-45
2022/03/02 10:59:00;;;;;;;25.93;14.80;;;8.00;72.60;;;;;;5042138;28;20552;-45
2022/03/02 11:01:27;;;;;;;28.17;16.47;;;8.10;71.90;;;;;;5048664;28;21094;-45
2022/03/02 11:03:55;;;;;;;29.80;17.97;;;8.30;72.20;;;;;;5041732;28;20569;-44
2022/03/02 11:06:24;;;;;;;22.40;16.60;;;8.40;72.40;;;;;;5045587;28;20485;-46
2022/03/02 11:08:54;;;;;;;31.13;16.37;;;8.50;73.50;;;;;;5039423;28;20482;-45
2022/03/02 11:11:21;;;;;;;38.13;15.23;;;8.70;72.20;;;;;;5040064;28;20479;-45
2022/03/02 11:13:51;;;;;;;22.17;15.77;;;9.00;73.40;;;;;;5041768;28;20471;-45
2022/03/02 11:16:19;;;;;;;29.47;17.10;;;9.30;73.80;;;;;;5035776;28;20483;-45
2022/03/02 11:18:48;;;;;;;24.67;15.67;;;9.50;72.80;;;;;;5040404;28;20471;-45
2022/03/02 11:21:20;;;;;;;23.73;15.97;;;;;;;;;;5038109;28;20572;-45
2022/03/02 11:23:50;;;;;;;23.20;15.63;;;10.20;71.60;;;;;;5039985;28;20472;-45
2022/03/02 11:26:19;;;;;;;27.20;15.40;;;10.40;71.00;;;;;;5039911;28;20483;-45
2022/03/02 11:28:48;;;;;;;23.50;16.30;;;10.80;70.40;;;;;;5039975;28;20543;-45
2022/03/02 11:31:21;;;;;;;72.43;28.00;;;11.00;70.20;;;;;;5043238;28;20485;-51
2022/03/02 11:33:48;;;;;;;28.53;16.40;;;11.20;68.20;;;;;;5043498;28;20491;-45
2022/03/02 11:36:18;;;;;;;31.17;15.50;;;11.40;66.40;;;;;;5042677;28;20492;-45
2022/03/02 11:38:50;;;;;;;24.90;15.50;;;11.60;66.20;;;;;;5022888;28;20472;-44
2022/03/02 11:41:18;;;;;;;21.50;14.67;;;11.70;65.30;;;;;;5028655;28;20840;-45
2022/03/02 11:43:45;;;;;;;25.07;16.57;;;11.70;66.10;;;;;;5042033;28;20476;-45
2022/03/02 11:46:12;;;;;;;24.57;17.70;;;12.00;64.00;;;;;;5030836;28;20478;-44
2022/03/02 11:48:42;;;;;;;28.40;17.27;;;12.10;66.70;;;;;;5040256;28;20499;-44
2022/03/02 11:51:13;;;;;;;28.13;16.97;;;12.50;65.40;;;;;;5038100;28;21019;-45
2022/03/02 11:53:44;;;;;;;23.73;16.13;;;12.70;62.10;;;;;;5028107;28;20481;-45
2022/03/02 11:56:13;;;;;;;34.63;16.87;;;12.30;59.40;;;;;;5052670;28;20491;-45
2022/03/02 11:59:02;;;;;;;27.23;15.87;;;12.30;61.60;;;;;;5039215;28;20584;-45
2022/03/02 12:01:40;;;;;;;28.77;16.33;;;12.30;62.90;;;;;;5042220;28;20481;-45
2022/03/02 12:04:09;;;;;;;23.50;16.07;;;12.40;63.10;;;;;;5039116;28;20498;-45
2022/03/02 12:06:45;;;;;;;28.33;15.80;;;12.40;63.90;;;;;;5049094;28;20508;-45
2022/03/02 12:09:25;;;;;;;25.70;16.03;;;12.50;64.30;;;;;;5037378;28;21324;-45
2022/03/02 12:11:52;;;;;;;24.87;16.00;;;12.40;62.40;;;;;;5031673;28;20470;-46
2022/03/02 12:14:20;;;;;;;25.77;16.10;;;12.40;62.80;;;;;;5040795;28;20484;-52
2022/03/02 12:16:50;;;;;;;30.70;16.73;;;12.10;58.60;;;;;;5040396;28;20474;-45
2022/03/02 12:19:23;;;;;;;32.13;16.33;;;12.00;62.40;;;;;;5026406;28;20487;-45
2022/03/02 12:21:53;;;;;;;24.87;15.67;;;11.90;63.20;;;;;;5038880;28;20969;-49
2022/03/02 12:24:29;;;;;;;25.87;15.10;;;11.80;61.40;;;;;;5041931;28;20536;-46
2022/03/02 12:27:04;;;;;;;25.20;15.93;;;11.70;63.00;;;;;;5039930;28;20483;-46
2022/03/02 12:29:31;;;;;;;29.97;16.13;;;11.50;61.40;;;;;;5037049;28;20841;-45
2022/03/02 12:32:11;;;;;;;23.63;15.80;;;11.40;61.40;;;;;;5040436;28;20490;-46
2022/03/02 12:34:40;;;;;;;56.00;27.57;;;11.40;61.00;;;;;;5039180;28;20491;-46
2022/03/02 12:37:08;;;;;;;27.07;16.90;;;11.20;62.30;;;;;;5041289;28;20483;-46
2022/03/02 12:39:37;;;;;;;26.10;16.13;;;11.20;61.30;;;;;;5037108;28;21034;-45
2022/03/02 12:42:07;;;;;;;31.80;16.67;;;11.30;63.40;;;;;;5037934;28;21068;-46
2022/03/02 12:44:36;;;;;;;23.93;14.70;;;11.50;63.60;;;;;;5035460;28;21066;-45
2022/03/02 12:47:06;;;;;;;27.40;17.30;;;11.40;60.00;;;;;;5038523;28;20527;-45
2022/03/02 12:49:35;;;;;;;27.00;16.53;;;11.60;64.00;;;;;;5039434;28;20491;-45